Time;durP1;ratioP1;P1;durP2;ratioP2;P2;SDS_P1;SDS_P2;PMS_P1;PMS_P2;Temp;Humidity;BMP_temperature;BMP_pressure;BME280_temperature;BME280_humidity;BME280_pressure;Samples;Min_cycle;Max_cycle;Signal;HPM_P1;HPM_P2
2021/08/29 00:01:33;;;;;;;13.38;5.25;;;;;;;;;;5055648;28;20019;-90
2021/08/29 00:03:58;;;;;;;6.78;3.47;;;;;;;;;;5055955;28;20477;-90
2021/08/29 00:06:23;;;;;;;11.10;3.42;;;;;;;;;;5056571;28;20407;-90
2021/08/29 00:08:49;;;;;;;7.90;2.80;;;;;;;;;;5056733;28;20079;-90
2021/08/29 00:11:14;;;;;;;5.57;3.10;;;;;;;;;;5055163;28;20473;-90
2021/08/29 00:13:39;;;;;;;6.25;2.67;;;;;;;;;;5054208;28;20075;-90
2021/08/29 00:16:04;;;;;;;8.18;2.90;;;;;;;;;;5054297;28;20021;-90
2021/08/29 00:18:29;;;;;;;4.05;2.78;;;;;;;;;;5054976;28;20029;-90
2021/08/29 00:20:55;;;;;;;8.30;2.85;;;;;;;;;;5054034;28;20029;-90
2021/08/29 00:23:20;;;;;;;7.22;2.83;;;;;;;;;;5055117;28;20460;-89
2021/08/29 00:25:45;;;;;;;9.05;3.15;;;;;;;;;;5054328;28;20021;-90
2021/08/29 00:28:10;;;;;;;7.55;3.20;;;;;;;;;;5055023;28;20025;-89
2021/08/29 00:30:35;;;;;;;7.35;3.10;;;;;;;;;;5054572;28;20025;-90
2021/08/29 00:33:01;;;;;;;7.68;3.05;;;;;;;;;;5056111;28;20116;-89
2021/08/29 00:35:26;;;;;;;7.78;2.88;;;;;;;;;;5055229;28;20017;-90
2021/08/29 00:37:51;;;;;;;7.55;2.78;;;;;;;;;;5054835;28;20024;-90
2021/08/29 00:40:20;;;;;;;6.22;2.92;;;;;;;;;;5055893;28;20031;-89
2021/08/29 00:42:45;;;;;;;12.77;3.13;;;;;;;;;;5055057;28;20086;-89
2021/08/29 00:45:11;;;;;;;10.23;3.13;;;;;;;;;;5055061;28;20040;-89
2021/08/29 00:47:36;;;;;;;7.18;3.00;;;;;;;;;;5055062;28;20099;-90
2021/08/29 00:50:02;;;;;;;9.10;3.13;;;;;;;;;;5054966;28;20013;-90
2021/08/29 00:52:28;;;;;;;12.27;2.70;;;;;;;;;;5056167;28;20016;-90
2021/08/29 00:54:53;;;;;;;6.60;2.83;;;;;;;;;;5054179;28;20075;-89
2021/08/29 00:57:18;;;;;;;7.80;2.78;;;;;;;;;;5054793;28;20009;-90
2021/08/29 00:59:43;;;;;;;6.93;2.90;;;;;;;;;;5054536;28;20086;-90
2021/08/29 01:02:13;;;;;;;6.35;3.03;;;;;;;;;;5055907;28;20534;-90
2021/08/29 01:04:45;;;;;;;9.85;3.25;;;;;;;;;;5055827;28;20438;-90
2021/08/29 01:07:18;;;;;;;6.47;2.90;;;;;;;;;;5053065;28;20063;-82
2021/08/29 01:09:44;;;;;;;12.13;3.30;;;;;;;;;;5053732;28;20052;-82
2021/08/29 01:12:10;;;;;;;5.05;2.80;;;;;;;;;;5053289;28;20024;-82
2021/08/29 01:14:36;;;;;;;5.50;2.55;;;;;;;;;;5053481;28;20542;-82
2021/08/29 01:17:01;;;;;;;7.40;2.70;;;;;;;;;;5053377;28;20025;-82
2021/08/29 01:19:48;;;;;;;5.13;2.70;;;;;;;;;;5053305;28;20013;-82
2021/08/29 01:22:14;;;;;;;8.98;2.92;;;;;;;;;;5053302;28;20017;-82
2021/08/29 01:24:40;;;;;;;5.28;2.25;;;;;;;;;;5053634;28;20020;-82
2021/08/29 01:27:08;;;;;;;10.30;3.05;;;;;;;;;;5053109;28;20116;-82
2021/08/29 01:29:33;;;;;;;8.52;3.20;;;;;;;;;;5053309;28;20024;-82
2021/08/29 01:31:59;;;;;;;5.93;3.00;;;;;;;;;;5054463;28;20465;-82
2021/08/29 01:34:24;;;;;;;6.55;2.88;;;;;;;;;;5053103;28;20032;-82
2021/08/29 01:36:51;;;;;;;10.63;2.90;;;;;;;;;;5053405;28;20079;-82
2021/08/29 01:39:17;;;;;;;8.95;3.20;;;;;;;;;;5053033;28;20468;-82
2021/08/29 01:41:44;;;;;;;6.00;2.60;;;;;;;;;;5053068;28;20032;-82
2021/08/29 01:44:09;;;;;;;7.43;2.78;;;;;;;;;;5054385;28;20487;-82
2021/08/29 01:46:35;;;;;;;6.68;2.70;;;;;;;;;;5052458;28;20023;-82
2021/08/29 01:49:05;;;;;;;7.93;2.88;;;;;;;;;;5052993;28;20445;-82
2021/08/29 01:51:30;;;;;;;9.45;3.33;;;;;;;;;;5052762;28;20433;-82
2021/08/29 01:53:55;;;;;;;12.35;3.33;;;;;;;;;;5053158;28;20024;-82
2021/08/29 01:56:20;;;;;;;12.13;3.95;;;;;;;;;;5052303;28;20021;-82
2021/08/29 01:58:46;;;;;;;9.88;3.45;;;;;;;;;;5052708;28;20375;-83
2021/08/29 02:01:12;;;;;;;10.85;3.63;;;;;;;;;;5052991;28;20036;-82
2021/08/29 02:03:39;;;;;;;7.63;2.80;;;;;;;;;;5052616;28;20029;-82
2021/08/29 02:06:12;;;;;;;14.15;3.55;;;;;;;;;;5052830;28;20111;-82
2021/08/29 02:08:44;;;;;;;10.65;3.55;;;;;;;;;;5052213;28;20077;-82
2021/08/29 02:11:09;;;;;;;8.70;3.50;;;;;;;;;;5053062;28;20032;-81
2021/08/29 02:13:35;;;;;;;7.53;3.10;;;;;;;;;;5052328;28;20264;-82
2021/08/29 02:16:20;;;;;;;6.70;3.28;;;;;;;;;;5052718;28;20017;-82
2021/08/29 02:18:47;;;;;;;7.40;3.03;;;;;;;;;;5082958;28;20075;-82
2021/08/29 02:21:13;;;;;;;9.27;2.90;;;;;;;;;;5052442;28;20021;-82
2021/08/29 02:23:39;;;;;;;7.90;3.28;;;;;;;;;;5052211;28;20099;-82
2021/08/29 02:26:04;;;;;;;8.80;3.17;;;;;;;;;;5052176;28;20384;-83
2021/08/29 02:28:29;;;;;;;14.02;3.80;;;;;;;;;;5052327;28;20029;-82
2021/08/29 02:30:55;;;;;;;11.70;3.75;;;;;;;;;;5053404;28;20023;-82
2021/08/29 02:33:21;;;;;;;12.52;3.35;;;;;;;;;;5052223;28;20025;-82
2021/08/29 02:35:46;;;;;;;6.47;3.30;;;;;;;;;;5052593;28;20032;-82
2021/08/29 02:38:12;;;;;;;8.40;3.47;;;;;;;;;;5051646;28;20021;-82
2021/08/29 02:40:44;;;;;;;9.57;3.38;;;;;;;;;;5051972;28;20032;-83
2021/08/29 02:43:10;;;;;;;9.75;3.33;;;;;;;;;;5051767;28;20021;-82
2021/08/29 02:45:36;;;;;;;12.02;3.83;;;;;;;;;;5051889;28;20166;-82
2021/08/29 02:48:02;;;;;;;9.90;3.90;;;;;;;;;;5051534;28;20063;-83
2021/08/29 02:50:28;;;;;;;10.95;3.70;;;;;;;;;;5051562;28;20024;-83
2021/08/29 02:52:53;;;;;;;11.77;4.63;;;;;;;;;;5052868;28;20464;-83
2021/08/29 02:55:19;;;;;;;9.25;3.65;;;;;;;;;;5051937;28;20062;-83
2021/08/29 02:57:45;;;;;;;9.00;3.63;;;;;;;;;;5051681;28;20067;-82
2021/08/29 03:00:14;;;;;;;7.72;3.88;;;;;;;;;;5051595;28;20021;-82
2021/08/29 03:02:41;;;;;;;9.50;3.92;;;;;;;;;;5051418;28;20021;-82
2021/08/29 03:05:07;;;;;;;9.13;4.20;;;;;;;;;;5051329;28;20380;-82
2021/08/29 03:07:32;;;;;;;8.88;3.78;;;;;;;;;;5051642;28;20019;-82
2021/08/29 03:09:57;;;;;;;11.70;3.92;;;;;;;;;;5051456;28;20017;-82
2021/08/29 03:12:23;;;;;;;7.25;3.78;;;;;;;;;;5052615;28;20107;-82
2021/08/29 03:14:50;;;;;;;10.32;3.95;;;;;;;;;;5051826;28;20021;-82
2021/08/29 03:17:15;;;;;;;8.95;3.67;;;;;;;;;;5051243;28;20021;-82
2021/08/29 03:19:41;;;;;;;10.63;3.97;;;;;;;;;;5051321;28;20101;-82
2021/08/29 03:22:07;;;;;;;8.30;3.95;;;;;;;;;;5051230;28;20025;-82
2021/08/29 03:24:32;;;;;;;9.30;4.03;;;;;;;;;;5051596;28;20028;-83
2021/08/29 03:26:57;;;;;;;4.53;3.08;;;;;;;;;;5051112;28;20013;-82
2021/08/29 03:29:22;;;;;;;8.32;3.55;;;;;;;;;;5051445;28;20377;-82
2021/08/29 03:31:48;;;;;;;13.15;4.25;;;;;;;;;;5054668;28;20056;-83
2021/08/29 03:34:16;;;;;;;9.23;3.70;;;;;;;;;;5055479;28;20017;-82
2021/08/29 03:36:43;;;;;;;8.68;3.90;;;;;;;;;;5055752;28;20379;-82
2021/08/29 03:39:10;;;;;;;10.60;4.32;;;;;;;;;;5055394;28;20024;-82
2021/08/29 03:41:37;;;;;;;12.60;3.95;;;;;;;;;;5055271;28;20469;-82
2021/08/29 03:44:03;;;;;;;12.05;4.07;;;;;;;;;;5055481;28;20021;-82
2021/08/29 03:46:28;;;;;;;9.57;3.78;;;;;;;;;;5054856;28;20017;-82
2021/08/29 03:48:53;;;;;;;9.23;3.97;;;;;;;;;;5055173;28;20028;-82
2021/08/29 03:51:18;;;;;;;9.38;4.15;;;;;;;;;;5055224;28;20029;-82
2021/08/29 03:53:44;;;;;;;7.35;3.75;;;;;;;;;;5055128;28;20021;-82
2021/08/29 03:56:10;;;;;;;7.32;3.38;;;;;;;;;;5054984;28;20715;-82
2021/08/29 03:58:35;;;;;;;9.52;3.72;;;;;;;;;;5055119;28;20013;-82
2021/08/29 04:01:01;;;;;;;7.72;3.30;;;;;;;;;;5055366;28;20052;-82
2021/08/29 04:03:26;;;;;;;11.90;3.88;;;;;;;;;;5054903;28;20123;-82
2021/08/29 04:05:52;;;;;;;7.95;3.60;;;;;;;;;;5056104;28;20492;-82
2021/08/29 04:08:19;;;;;;;6.85;2.95;;;;;;;;;;5054912;28;20649;-83
2021/08/29 04:10:45;;;;;;;7.47;3.30;;;;;;;;;;5055047;28;20028;-82
2021/08/29 04:13:12;;;;;;;11.93;3.90;;;;;;;;;;5054996;28;20083;-82
2021/08/29 04:15:37;;;;;;;8.60;3.40;;;;;;;;;;5054588;28;20012;-82
2021/08/29 04:18:04;;;;;;;9.30;3.60;;;;;;;;;;5055006;28;20028;-82
2021/08/29 04:20:30;;;;;;;11.23;3.75;;;;;;;;;;5054532;28;20021;-82
2021/08/29 04:22:55;;;;;;;12.07;3.83;;;;;;;;;;5054563;28;20503;-82
2021/08/29 04:25:20;;;;;;;8.55;3.22;;;;;;;;;;5054631;28;20075;-82
2021/08/29 04:27:45;;;;;;;8.15;3.33;;;;;;;;;;5054768;28;20044;-82
2021/08/29 04:30:11;;;;;;;8.45;3.25;;;;;;;;;;5055850;28;20083;-82
2021/08/29 04:32:37;;;;;;;10.48;3.80;;;;;;;;;;5055289;28;20017;-83
2021/08/29 04:35:03;;;;;;;11.10;4.10;;;;;;;;;;5054782;28;20052;-82
2021/08/29 04:37:28;;;;;;;9.18;3.83;;;;;;;;;;5054576;28;20488;-82
2021/08/29 04:39:53;;;;;;;13.45;4.32;;;;;;;;;;5053951;28;20456;-82
2021/08/29 04:42:18;;;;;;;8.70;3.80;;;;;;;;;;5054393;28;20021;-82
2021/08/29 04:44:44;;;;;;;11.13;4.05;;;;;;;;;;5054226;28;20032;-82
2021/08/29 04:47:09;;;;;;;12.10;3.28;;;;;;;;;;5053977;28;20029;-83
2021/08/29 04:49:34;;;;;;;7.78;3.60;;;;;;;;;;5054959;28;20123;-82
2021/08/29 04:51:59;;;;;;;7.38;3.17;;;;;;;;;;5053793;28;20021;-82
2021/08/29 04:54:24;;;;;;;8.88;4.00;;;;;;;;;;5054085;28;20021;-82
2021/08/29 04:56:50;;;;;;;11.57;3.58;;;;;;;;;;5053861;28;20483;-82
2021/08/29 04:59:15;;;;;;;7.85;3.05;;;;;;;;;;5054052;28;20021;-83
2021/08/29 05:01:40;;;;;;;8.70;2.72;;;;;;;;;;5053856;28;20025;-82
2021/08/29 05:04:05;;;;;;;10.13;3.72;;;;;;;;;;5055200;28;20017;-82
2021/08/29 05:06:30;;;;;;;9.55;3.35;;;;;;;;;;5053624;28;20013;-82
2021/08/29 05:08:56;;;;;;;12.23;3.58;;;;;;;;;;5053930;28;20048;-82
2021/08/29 05:11:22;;;;;;;7.65;3.58;;;;;;;;;;5053564;28;20099;-82
2021/08/29 05:13:47;;;;;;;7.75;3.53;;;;;;;;;;5053777;28;20024;-82
2021/08/29 05:16:12;;;;;;;10.52;4.00;;;;;;;;;;5053813;28;20020;-82
2021/08/29 05:18:37;;;;;;;4.93;3.10;;;;;;;;;;5053329;28;20021;-82
2021/08/29 05:21:02;;;;;;;6.93;3.28;;;;;;;;;;5053672;28;20017;-82
2021/08/29 05:23:28;;;;;;;14.20;3.92;;;;;;;;;;5053571;28;20025;-82
2021/08/29 05:25:53;;;;;;;11.13;3.65;;;;;;;;;;5053592;28;20024;-82
2021/08/29 05:28:20;;;;;;;6.95;3.42;;;;;;;;;;5053312;28;20017;-82
2021/08/29 05:30:46;;;;;;;8.52;4.10;;;;;;;;;;5052995;28;20032;-82
2021/08/29 05:33:12;;;;;;;9.00;3.92;;;;;;;;;;5054242;28;20005;-83
2021/08/29 05:35:37;;;;;;;11.70;4.10;;;;;;;;;;5053483;28;20021;-82
2021/08/29 05:38:02;;;;;;;11.52;4.72;;;;;;;;;;5053496;28;20044;-82
2021/08/29 05:40:28;;;;;;;14.40;4.60;;;;;;;;;;5054587;28;20376;-82
2021/08/29 05:42:53;;;;;;;10.20;4.90;;;;;;;;;;5052921;28;20017;-82
2021/08/29 05:45:18;;;;;;;10.88;4.43;;;;;;;;;;5053012;28;20036;-82
2021/08/29 05:47:43;;;;;;;7.18;3.47;;;;;;;;;;5052938;28;20031;-83
2021/08/29 05:50:09;;;;;;;10.50;4.15;;;;;;;;;;5053149;28;20453;-83
2021/08/29 05:52:34;;;;;;;9.68;3.90;;;;;;;;;;5053185;28;20029;-83
2021/08/29 05:54:59;;;;;;;7.20;3.53;;;;;;;;;;5052449;28;20461;-82
2021/08/29 05:57:24;;;;;;;8.50;3.65;;;;;;;;;;5052724;28;20522;-83
2021/08/29 05:59:49;;;;;;;15.38;4.00;;;;;;;;;;5052823;28;20029;-83
2021/08/29 06:02:15;;;;;;;11.75;3.17;;;;;;;;;;5053043;28;20571;-82
2021/08/29 06:04:41;;;;;;;9.77;3.78;;;;;;;;;;5052887;28;20493;-83
2021/08/29 06:07:07;;;;;;;6.25;3.38;;;;;;;;;;5052342;28;20024;-82
2021/08/29 06:09:32;;;;;;;12.73;3.58;;;;;;;;;;5052742;28;20024;-83
2021/08/29 06:11:57;;;;;;;10.23;3.40;;;;;;;;;;5051784;28;20052;-83
2021/08/29 06:14:22;;;;;;;11.32;3.67;;;;;;;;;;5052688;28;20103;-83
2021/08/29 06:16:48;;;;;;;9.13;3.80;;;;;;;;;;5052426;28;20398;-83
2021/08/29 06:19:13;;;;;;;7.38;3.60;;;;;;;;;;5052551;28;20017;-83
2021/08/29 06:21:39;;;;;;;12.35;3.92;;;;;;;;;;5052381;28;20102;-83
2021/08/29 06:24:04;;;;;;;9.90;3.28;;;;;;;;;;5052171;28;20108;-83
2021/08/29 06:26:29;;;;;;;8.25;3.22;;;;;;;;;;5052694;28;20029;-83
2021/08/29 06:28:54;;;;;;;10.98;3.00;;;;;;;;;;5053238;28;20086;-83
2021/08/29 06:31:20;;;;;;;12.90;3.45;;;;;;;;;;5052064;28;20091;-83
2021/08/29 06:33:45;;;;;;;12.30;3.90;;;;;;;;;;5052246;28;20029;-83
2021/08/29 06:36:10;;;;;;;7.20;3.45;;;;;;;;;;5053351;28;20029;-82
2021/08/29 06:38:35;;;;;;;5.78;2.95;;;;;;;;;;5052205;28;20028;-83
2021/08/29 06:41:01;;;;;;;13.77;3.30;;;;;;;;;;5052049;28;20025;-83
2021/08/29 06:43:26;;;;;;;10.73;3.60;;;;;;;;;;5052060;28;20099;-82
2021/08/29 06:45:51;;;;;;;7.55;2.75;;;;;;;;;;5051983;28;20112;-83
2021/08/29 06:48:16;;;;;;;9.27;3.15;;;;;;;;;;5051796;28;20033;-82
2021/08/29 06:50:42;;;;;;;9.52;3.70;;;;;;;;;;5051965;28;20467;-82
2021/08/29 06:53:07;;;;;;;5.85;3.33;;;;;;;;;;5051907;28;20021;-83
2021/08/29 06:55:32;;;;;;;9.65;2.72;;;;;;;;;;5051836;28;20021;-83
2021/08/29 06:57:57;;;;;;;7.20;2.85;;;;;;;;;;5051781;28;20488;-83
2021/08/29 07:00:23;;;;;;;5.90;2.40;;;;;;;;;;5078913;28;20439;-83
2021/08/29 07:02:48;;;;;;;6.97;3.28;;;;;;;;;;5051708;28;20469;-83
2021/08/29 07:05:13;;;;;;;10.57;3.10;;;;;;;;;;5050345;28;20055;-83
2021/08/29 07:07:38;;;;;;;12.27;2.70;;;;;;;;;;5048174;28;20456;-82
2021/08/29 07:10:04;;;;;;;15.90;3.13;;;;;;;;;;5051311;28;20428;-82
2021/08/29 07:12:29;;;;;;;7.97;3.13;;;;;;;;;;5050708;28;20025;-82
2021/08/29 07:14:54;;;;;;;12.02;2.65;;;;;;;;;;5051609;28;20021;-82
2021/08/29 07:17:19;;;;;;;5.05;2.17;;;;;;;;;;5051563;28;20055;-82
2021/08/29 07:19:45;;;;;;;5.05;2.13;;;;;;;;;;5051703;28;20481;-82
2021/08/29 07:22:10;;;;;;;9.23;2.67;;;;;;;;;;5051390;28;20025;-82
2021/08/29 07:24:36;;;;;;;5.68;2.42;;;;;;;;;;5050925;28;20032;-82
2021/08/29 07:27:01;;;;;;;8.00;2.75;;;;;;;;;;5053220;28;20104;-83
2021/08/29 07:29:26;;;;;;;6.85;2.55;;;;;;;;;;5050989;28;20112;-82
2021/08/29 07:31:51;;;;;;;7.88;2.78;;;;;;;;;;5050311;28;20067;-83
2021/08/29 07:34:17;;;;;;;5.70;2.67;;;;;;;;;;5051887;28;20354;-82
2021/08/29 07:36:42;;;;;;;8.35;2.72;;;;;;;;;;5050545;28;20437;-82
2021/08/29 07:39:07;;;;;;;11.73;2.40;;;;;;;;;;5051285;28;20017;-83
2021/08/29 07:41:32;;;;;;;10.52;3.00;;;;;;;;;;5052469;28;20104;-82
2021/08/29 07:43:57;;;;;;;9.75;2.70;;;;;;;;;;5050717;28;20024;-83
2021/08/29 07:46:26;;;;;;;10.93;2.63;;;;;;;;;;5050080;28;20477;-82
2021/08/29 07:48:51;;;;;;;10.40;2.70;;;;;;;;;;5050927;28;20052;-82
2021/08/29 07:51:17;;;;;;;8.65;2.70;;;;;;;;;;5047058;28;20025;-82
2021/08/29 07:53:42;;;;;;;6.53;2.58;;;;;;;;;;5046740;28;20037;-83
2021/08/29 07:56:07;;;;;;;12.30;2.80;;;;;;;;;;5046508;28;20108;-83
2021/08/29 07:58:33;;;;;;;10.45;3.05;;;;;;;;;;5047821;28;20082;-82
2021/08/29 08:00:58;;;;;;;12.80;2.83;;;;;;;;;;5050264;28;20098;-82
2021/08/29 08:03:23;;;;;;;8.27;2.40;;;;;;;;;;5048576;28;21703;-82
2021/08/29 08:05:48;;;;;;;9.13;2.28;;;;;;;;;;5049033;28;20029;-82
2021/08/29 08:08:13;;;;;;;10.68;2.45;;;;;;;;;;5048493;28;20060;-83
2021/08/29 08:10:39;;;;;;;4.75;2.03;;;;;;;;;;5048574;28;20135;-83
2021/08/29 08:13:04;;;;;;;7.60;2.10;;;;;;;;;;5048696;28;20048;-83
2021/08/29 08:15:29;;;;;;;12.40;2.20;;;;;;;;;;5050563;28;20013;-83
2021/08/29 08:17:55;;;;;;;8.55;2.08;;;;;;;;;;5052092;28;20024;-83
2021/08/29 08:20:20;;;;;;;11.50;2.22;;;;;;;;;;5052967;28;20032;-83
2021/08/29 08:22:47;;;;;;;9.02;1.80;;;;;;;;;;5052493;28;20636;-83
2021/08/29 08:25:13;;;;;;;9.50;2.08;;;;;;;;;;5055227;28;20017;-82
2021/08/29 08:27:38;;;;;;;8.98;2.05;;;;;;;;;;5053526;28;20063;-83
2021/08/29 08:30:04;;;;;;;6.20;1.80;;;;;;;;;;5053313;28;20108;-83
2021/08/29 08:32:29;;;;;;;9.05;2.50;;;;;;;;;;5052918;28;20111;-82
2021/08/29 08:34:54;;;;;;;6.22;1.67;;;;;;;;;;5048536;28;20491;-83
2021/08/29 08:37:20;;;;;;;12.88;2.22;;;;;;;;;;5046434;28;20025;-83
2021/08/29 08:39:45;;;;;;;5.90;1.60;;;;;;;;;;5054004;28;20109;-82
2021/08/29 08:42:10;;;;;;;11.50;1.88;;;;;;;;;;5054355;28;20021;-83
2021/08/29 08:44:35;;;;;;;5.55;1.80;;;;;;;;;;5053785;28;20021;-83
2021/08/29 08:47:04;;;;;;;6.63;1.85;;;;;;;;;;5054341;28;20021;-84
2021/08/29 08:49:31;;;;;;;7.88;2.08;;;;;;;;;;5082719;28;20067;-83
2021/08/29 08:51:59;;;;;;;7.97;1.77;;;;;;;;;;5053749;28;20131;-82
2021/08/29 08:54:25;;;;;;;11.00;2.00;;;;;;;;;;5053899;28;20017;-83
2021/08/29 08:56:51;;;;;;;8.38;1.90;;;;;;;;;;5053490;28;20032;-82
2021/08/29 08:59:17;;;;;;;8.57;1.80;;;;;;;;;;5048247;28;20074;-83
2021/08/29 09:01:42;;;;;;;12.32;2.10;;;;;;;;;;5053619;28;20488;-83
2021/08/29 09:04:09;;;;;;;13.75;2.08;;;;;;;;;;5055041;28;20013;-83
2021/08/29 09:06:34;;;;;;;12.95;2.17;;;;;;;;;;5052916;28;20029;-82
2021/08/29 09:09:01;;;;;;;9.68;2.28;;;;;;;;;;5053383;28;20027;-83
2021/08/29 09:11:27;;;;;;;5.68;1.60;;;;;;;;;;5052788;28;20025;-82
2021/08/29 09:13:53;;;;;;;4.35;1.73;;;;;;;;;;5052727;28;20075;-83
2021/08/29 09:16:19;;;;;;;8.15;1.73;;;;;;;;;;5052906;28;20042;-82
2021/08/29 09:18:55;;;;;;;11.50;1.70;;;;;;;;;;5050445;28;20021;-82
2021/08/29 09:21:29;;;;;;;5.72;2.40;;;;;;;;;;5044436;28;20052;-82
2021/08/29 09:23:55;;;;;;;10.43;2.22;;;;;;;;;;5052898;28;20116;-82
2021/08/29 09:26:21;;;;;;;6.78;2.10;;;;;;;;;;5053227;28;20443;-83
2021/08/29 09:28:47;;;;;;;8.48;1.65;;;;;;;;;;5051895;28;20432;-82
2021/08/29 09:31:14;;;;;;;8.10;1.95;;;;;;;;;;5053251;28;20135;-83
2021/08/29 09:33:39;;;;;;;7.18;1.63;;;;;;;;;;5046293;28;20025;-82
2021/08/29 09:36:05;;;;;;;10.45;1.90;;;;;;;;;;5051271;28;20379;-82
2021/08/29 09:38:36;;;;;;;11.95;2.38;;;;;;;;;;5053215;28;20047;-83
2021/08/29 09:41:02;;;;;;;10.13;2.05;;;;;;;;;;5049031;28;20461;-82
2021/08/29 09:43:36;;;;;;;5.78;1.60;;;;;;;;;;5052719;28;20025;-83
2021/08/29 09:46:08;;;;;;;11.23;1.90;;;;;;;;;;5053144;28;20079;-82
2021/08/29 09:48:33;;;;;;;6.78;2.08;;;;;;;;;;5053006;28;20099;-83
2021/08/29 09:50:58;;;;;;;9.05;1.65;;;;;;;;;;5053020;28;20024;-82
2021/08/29 09:53:24;;;;;;;9.35;1.77;;;;;;;;;;5051176;28;20045;-83
2021/08/29 09:55:49;;;;;;;8.13;1.50;;;;;;;;;;5051754;28;20056;-82
2021/08/29 09:58:28;;;;;;;6.05;1.95;;;;;;;;;;5048134;28;20025;-83
2021/08/29 10:01:15;;;;;;;11.32;2.03;;;;;;;;;;5079671;28;20025;-83
2021/08/29 10:03:44;;;;;;;9.63;2.10;;;;;;;;;;5049326;28;20029;-83
2021/08/29 10:06:26;;;;;;;9.27;2.22;;;;;;;;;;5068338;28;20115;-83
2021/08/29 10:08:52;;;;;;;8.65;1.73;;;;;;;;;;5052598;28;20025;-83
2021/08/29 10:11:18;;;;;;;7.28;2.00;;;;;;;;;;5054357;28;20036;-84
2021/08/29 10:13:44;;;;;;;9.38;1.60;;;;;;;;;;5052640;28;20460;-84
2021/08/29 10:16:10;;;;;;;9.25;2.25;;;;;;;;;;5052735;28;20024;-83
2021/08/29 10:18:37;;;;;;;8.48;1.85;;;;;;;;;;5052822;28;20088;-84
2021/08/29 10:21:02;;;;;;;7.07;2.17;;;;;;;;;;5052305;28;20013;-84
2021/08/29 10:23:28;;;;;;;7.47;1.77;;;;;;;;;;5051995;28;20021;-84
2021/08/29 10:25:55;;;;;;;5.97;2.17;;;;;;;;;;5082802;28;20357;-84
2021/08/29 10:28:24;;;;;;;7.85;1.90;;;;;;;;;;5052063;28;20024;-84
2021/08/29 10:30:53;;;;;;;16.63;2.15;;;;;;;;;;5052149;28;20476;-83
2021/08/29 10:33:19;;;;;;;6.50;1.77;;;;;;;;;;5051214;28;20442;-83
2021/08/29 10:35:45;;;;;;;8.73;1.77;;;;;;;;;;5051887;28;20107;-84
2021/08/29 10:38:10;;;;;;;6.80;2.13;;;;;;;;;;5051919;28;20021;-84
2021/08/29 10:40:36;;;;;;;12.02;2.28;;;;;;;;;;5052057;28;20024;-84
2021/08/29 10:43:01;;;;;;;5.25;1.70;;;;;;;;;;5051861;28;20009;-83
2021/08/29 10:45:27;;;;;;;10.77;2.35;;;;;;;;;;5051530;28;20021;-84
2021/08/29 10:47:52;;;;;;;6.82;2.08;;;;;;;;;;5051874;28;20468;-83
2021/08/29 10:50:18;;;;;;;8.65;2.17;;;;;;;;;;5050709;28;20021;-83
2021/08/29 10:52:44;;;;;;;5.85;1.77;;;;;;;;;;5051799;28;20021;-84
2021/08/29 10:55:10;;;;;;;9.88;2.38;;;;;;;;;;5051538;28;20023;-83
2021/08/29 10:57:39;;;;;;;5.68;2.15;;;;;;;;;;5043354;28;20025;-83
2021/08/29 11:00:17;;;;;;;7.68;2.15;;;;;;;;;;5050120;28;20009;-83
2021/08/29 11:02:43;;;;;;;10.25;2.45;;;;;;;;;;5051591;28;20024;-83
2021/08/29 11:05:09;;;;;;;9.32;1.98;;;;;;;;;;5051074;28;20021;-85
2021/08/29 11:07:36;;;;;;;8.35;2.17;;;;;;;;;;5051435;28;20078;-85
2021/08/29 11:10:01;;;;;;;7.95;2.00;;;;;;;;;;5047739;28;20417;-85
2021/08/29 11:12:27;;;;;;;5.35;1.85;;;;;;;;;;5050942;28;20044;-85
2021/08/29 11:14:53;;;;;;;6.68;2.00;;;;;;;;;;5051703;28;20039;-84
2021/08/29 11:17:19;;;;;;;7.70;2.30;;;;;;;;;;5050694;28;20025;-84
2021/08/29 11:19:48;;;;;;;6.38;2.00;;;;;;;;;;5051820;28;20384;-85
2021/08/29 11:22:14;;;;;;;6.25;2.00;;;;;;;;;;5051386;28;20056;-85
2021/08/29 11:24:47;;;;;;;5.53;1.92;;;;;;;;;;5051404;28;20488;-85
2021/08/29 11:27:31;;;;;;;5.10;1.85;;;;;;;;;;5051498;28;20027;-85
2021/08/29 11:29:56;;;;;;;7.70;2.30;;;;;;;;;;5051230;28;20025;-85
2021/08/29 11:32:33;;;;;;;9.60;2.20;;;;;;;;;;5051862;28;20032;-85
2021/08/29 11:35:06;;;;;;;6.63;2.22;;;;;;;;;;5050778;28;20013;-84
2021/08/29 11:37:31;;;;;;;6.82;2.30;;;;;;;;;;5051489;28;20116;-84
2021/08/29 11:40:00;;;;;;;5.70;1.88;;;;;;;;;;5051021;28;20041;-84
2021/08/29 11:42:27;;;;;;;10.93;2.20;;;;;;;;;;5050722;28;20033;-85
2021/08/29 11:44:53;;;;;;;10.95;2.30;;;;;;;;;;5084499;28;20021;-85
2021/08/29 11:47:18;;;;;;;11.15;2.35;;;;;;;;;;5051040;28;20468;-85
2021/08/29 11:49:51;;;;;;;9.73;2.30;;;;;;;;;;5051104;28;20029;-85
2021/08/29 11:52:25;;;;;;;7.97;2.25;;;;;;;;;;5052861;28;20021;-85
2021/08/29 11:55:01;;;;;;;6.43;2.42;;;;;;;;;;5053418;28;20059;-85
2021/08/29 11:57:26;;;;;;;6.68;2.15;;;;;;;;;;5051139;28;20024;-84
2021/08/29 12:00:04;;;;;;;7.85;2.22;;;;;;;;;;5056166;28;20460;-85
2021/08/29 12:02:41;;;;;;;5.05;2.05;;;;;;;;;;5053217;28;20033;-85
2021/08/29 12:05:11;;;;;;;9.38;2.40;;;;;;;;;;5052890;28;20021;-85
2021/08/29 12:07:36;;;;;;;7.43;2.28;;;;;;;;;;5078770;28;20022;-85
2021/08/29 12:10:02;;;;;;;10.43;2.70;;;;;;;;;;5054523;28;20450;-84
2021/08/29 12:12:27;;;;;;;6.70;2.17;;;;;;;;;;5054462;28;20036;-85
2021/08/29 12:14:53;;;;;;;9.10;2.20;;;;;;;;;;5054399;28;20464;-84
2021/08/29 12:17:18;;;;;;;5.78;2.00;;;;;;;;;;5053934;28;20017;-85
2021/08/29 12:19:44;;;;;;;6.50;1.95;;;;;;;;;;5059174;28;20116;-85
2021/08/29 12:22:10;;;;;;;12.05;2.40;;;;;;;;;;5056572;28;20476;-85
2021/08/29 12:24:37;;;;;;;11.90;2.65;;;;;;;;;;5054621;28;20060;-84
2021/08/29 12:27:08;;;;;;;8.15;2.40;;;;;;;;;;5054213;28;20086;-85
2021/08/29 12:29:44;;;;;;;4.95;1.80;;;;;;;;;;5055607;28;20346;-84
2021/08/29 12:32:11;;;;;;;8.48;2.58;;;;;;;;;;5054730;28;20020;-85
2021/08/29 12:34:36;;;;;;;8.82;2.20;;;;;;;;;;5054010;28;20017;-85
2021/08/29 12:37:03;;;;;;;8.55;2.47;;;;;;;;;;5054605;28;20487;-85
2021/08/29 12:39:28;;;;;;;8.93;1.90;;;;;;;;;;5054336;28;20017;-84
2021/08/29 12:41:53;;;;;;;9.50;2.10;;;;;;;;;;5054209;28;20017;-85
2021/08/29 12:44:31;;;;;;;4.72;1.83;;;;;;;;;;5054319;28;20036;-85
2021/08/29 12:46:56;;;;;;;7.95;1.77;;;;;;;;;;5055615;28;20032;-85
2021/08/29 12:49:21;;;;;;;10.57;2.13;;;;;;;;;;5054139;28;20029;-84
2021/08/29 12:51:46;;;;;;;8.45;2.42;;;;;;;;;;5053535;28;20028;-85
2021/08/29 12:54:13;;;;;;;11.40;2.60;;;;;;;;;;5054053;28;20028;-85
2021/08/29 12:56:38;;;;;;;10.35;2.38;;;;;;;;;;5053601;28;20021;-84
2021/08/29 12:59:04;;;;;;;9.07;2.35;;;;;;;;;;5054329;28;20504;-84
2021/08/29 13:01:29;;;;;;;9.25;2.35;;;;;;;;;;5042534;28;20029;-84
2021/08/29 13:03:54;;;;;;;7.25;2.30;;;;;;;;;;5052762;28;20040;-85
2021/08/29 13:06:20;;;;;;;9.18;2.47;;;;;;;;;;5049350;28;20380;-85
2021/08/29 13:08:47;;;;;;;10.57;3.10;;;;;;;;;;5053658;28;20075;-85
2021/08/29 13:11:13;;;;;;;13.93;2.50;;;;;;;;;;5053500;28;20554;-85
2021/08/29 13:13:40;;;;;;;9.60;2.30;;;;;;;;;;5061840;28;20036;-84
2021/08/29 13:16:07;;;;;;;11.15;2.95;;;;;;;;;;5064352;28;20021;-85
2021/08/29 13:18:32;;;;;;;8.10;2.30;;;;;;;;;;5054361;28;20024;-85
2021/08/29 13:20:57;;;;;;;8.60;2.15;;;;;;;;;;5052787;28;20088;-85
2021/08/29 13:23:29;;;;;;;8.95;2.13;;;;;;;;;;5053103;28;20079;-85
2021/08/29 13:25:59;;;;;;;12.98;2.40;;;;;;;;;;5039628;28;20380;-85
2021/08/29 13:28:25;;;;;;;9.40;2.20;;;;;;;;;;5053415;28;20024;-84
2021/08/29 13:30:59;;;;;;;7.47;2.15;;;;;;;;;;5053795;28;20029;-85
2021/08/29 13:33:25;;;;;;;7.88;1.88;;;;;;;;;;5053400;28;20376;-85
2021/08/29 13:35:58;;;;;;;5.38;2.10;;;;;;;;;;5053219;28;20021;-85
2021/08/29 13:38:23;;;;;;;7.28;2.03;;;;;;;;;;5052948;28;20490;-84
2021/08/29 13:40:54;;;;;;;15.05;3.65;;;;;;;;;;5053054;28;20021;-85
2021/08/29 13:43:29;;;;;;;12.43;2.40;;;;;;;;;;5052623;28;20029;-85
2021/08/29 13:45:57;;;;;;;9.65;2.33;;;;;;;;;;5054330;28;20115;-85
2021/08/29 13:48:23;;;;;;;6.82;2.47;;;;;;;;;;5052729;28;20029;-85
2021/08/29 13:50:48;;;;;;;9.27;2.72;;;;;;;;;;5053132;28;20099;-85
2021/08/29 13:53:14;;;;;;;6.93;2.65;;;;;;;;;;5052912;28;20021;-85
2021/08/29 13:55:40;;;;;;;10.52;2.65;;;;;;;;;;5052871;28;20641;-85
2021/08/29 13:58:05;;;;;;;7.78;3.17;;;;;;;;;;5053000;28;20392;-85
2021/08/29 14:00:31;;;;;;;7.00;2.70;;;;;;;;;;5052776;28;20028;-85
2021/08/29 14:03:00;;;;;;;8.63;2.67;;;;;;;;;;5053073;28;20427;-85
2021/08/29 14:05:25;;;;;;;6.63;2.45;;;;;;;;;;5052999;28;20024;-85
2021/08/29 14:07:50;;;;;;;11.90;2.55;;;;;;;;;;5054144;28;20028;-85
2021/08/29 14:10:16;;;;;;;10.55;2.85;;;;;;;;;;5052719;28;20195;-85
2021/08/29 14:12:41;;;;;;;12.85;2.50;;;;;;;;;;5052765;28;20472;-85
2021/08/29 14:15:07;;;;;;;4.95;2.17;;;;;;;;;;5052319;28;20451;-85
2021/08/29 14:17:32;;;;;;;9.52;2.30;;;;;;;;;;5052547;28;20039;-85
2021/08/29 14:19:57;;;;;;;9.90;2.65;;;;;;;;;;5052472;28;20078;-85
2021/08/29 14:22:22;;;;;;;8.23;3.03;;;;;;;;;;5052276;28;20105;-85
2021/08/29 14:24:48;;;;;;;11.93;2.53;;;;;;;;;;5052385;28;20131;-85
2021/08/29 14:27:13;;;;;;;12.00;2.30;;;;;;;;;;5051780;28;20052;-85
2021/08/29 14:29:38;;;;;;;12.70;3.38;;;;;;;;;;5053688;28;20020;-85
2021/08/29 14:32:04;;;;;;;10.95;2.83;;;;;;;;;;5052394;28;20021;-85
2021/08/29 14:34:29;;;;;;;12.82;3.35;;;;;;;;;;5053362;28;20100;-85